Terminal Aerodrome Forecast
Issued by NWS

Current Version | Previous Version | Text Only | Print | Product List | Glossary On
Versions: 1 2 3 4 5 6 7 8 9 10 11 12 13 14 15 16 17 18
000
FTUS44 KMAF 222300 RRA
TAFPEQ
TAF
KPEQ 222346Z 2300/2324 27013G22KT P6SM SCT200
     FM230600 30012KT P6SM BKN090
     FM231000 32015G25KT P6SM BKN020
     FM231200 33015G25KT 5SM -RASN OVC020
      TEMPO 2314/2318 5SM -SN BR BKN015 OVC020
     FM231800 32012G20KT P6SM SCT040 BKN090=

USA.gov is the U.S. government's official web portal to all federal, state and local government web resources and services.